createdAt,value
2023-01-06T00:00:31.457Z,6.53
2023-01-06T00:02:58.848Z,5.88
2023-01-06T00:05:29.005Z,5.78
2023-01-06T00:10:23.754Z,8.02
2023-01-06T00:12:51.323Z,5.35
2023-01-06T00:15:19.013Z,7.25
2023-01-06T00:17:46.479Z,6.90
2023-01-06T00:20:14.156Z,5.63
2023-01-06T00:22:42.897Z,5.78
2023-01-06T00:25:11.070Z,4.40
2023-01-06T00:27:38.523Z,5.65
2023-01-06T00:30:06.668Z,5.90
2023-01-06T00:32:34.062Z,5.28
2023-01-06T00:35:01.485Z,5.70
2023-01-06T00:37:28.895Z,5.50
2023-01-06T00:39:57.615Z,5.57
2023-01-06T00:42:25.632Z,5.85
2023-01-06T00:44:53.101Z,5.63
2023-01-06T00:47:20.740Z,4.55
2023-01-06T00:49:48.179Z,4.40
2023-01-06T00:52:15.710Z,4.78
2023-01-06T00:54:43.820Z,4.20
2023-01-06T00:57:12.490Z,4.72
2023-01-06T00:59:39.878Z,5.10
2023-01-06T01:02:07.336Z,5.20
2023-01-06T01:04:35.908Z,3.53
2023-01-06T01:07:03.303Z,4.18
2023-01-06T01:09:31.592Z,3.90
2023-01-06T01:12:11.956Z,4.72
2023-01-06T01:14:42.669Z,4.90
2023-01-06T01:17:10.468Z,4.03
2023-01-06T01:19:38.515Z,5.57
2023-01-06T01:22:05.930Z,4.20
2023-01-06T01:24:33.323Z,3.03
2023-01-06T01:27:00.693Z,4.45
2023-01-06T01:29:28.136Z,5.25
2023-01-06T01:31:56.854Z,3.33
2023-01-06T01:34:24.256Z,3.72
2023-01-06T01:36:52.261Z,3.25
2023-01-06T01:39:22.744Z,4.20
2023-01-06T01:41:50.243Z,3.85
2023-01-06T01:44:52.527Z,3.67
2023-01-06T01:47:24.778Z,2.97
2023-01-06T01:49:53.821Z,3.00
2023-01-06T01:52:21.212Z,2.65
2023-01-06T01:54:48.634Z,3.53
2023-01-06T01:57:17.372Z,3.72
2023-01-06T01:59:44.774Z,2.80
2023-01-06T02:02:12.481Z,2.53
2023-01-06T02:04:42.556Z,2.92
2023-01-06T02:07:10.081Z,2.88
2023-01-06T02:09:54.052Z,3.00
2023-01-06T02:12:21.416Z,3.28
2023-01-06T02:14:48.800Z,2.53
2023-01-06T02:17:25.518Z,3.35
2023-01-06T02:20:28.159Z,3.40
2023-01-06T02:23:17.054Z,3.15
2023-01-06T02:26:04.074Z,3.92
2023-01-06T02:28:51.165Z,2.65
2023-01-06T02:31:42.224Z,2.92
2023-01-06T02:34:11.956Z,4.32
2023-01-06T02:36:41.345Z,3.17
2023-01-06T02:39:16.852Z,2.47
2023-01-06T02:41:45.801Z,2.25
2023-01-06T02:44:18.286Z,3.05
2023-01-06T02:47:00.795Z,3.33
2023-01-06T02:49:30.427Z,2.50
2023-01-06T02:51:59.214Z,2.35
2023-01-06T02:54:30.220Z,2.70
2023-01-06T02:57:08.212Z,3.53
2023-01-06T02:59:37.493Z,2.72
2023-01-06T03:02:06.305Z,2.83
2023-01-06T03:04:35.639Z,2.40
2023-01-06T03:07:03.381Z,2.30
2023-01-06T03:09:33.466Z,2.20
2023-01-06T03:12:01.239Z,3.05
2023-01-06T03:14:30.037Z,2.47
2023-01-06T03:16:57.418Z,2.22
2023-01-06T03:19:26.114Z,2.20
2023-01-06T03:21:53.502Z,2.78
2023-01-06T03:24:20.898Z,2.60
2023-01-06T03:26:48.275Z,2.63
2023-01-06T03:29:17.573Z,2.22
2023-01-06T03:31:49.307Z,2.60
2023-01-06T03:34:19.055Z,1.88
2023-01-06T03:36:51.119Z,3.08
2023-01-06T03:39:19.323Z,2.50
2023-01-06T03:42:04.552Z,2.05
2023-01-06T03:44:35.121Z,2.40
2023-01-06T03:47:05.868Z,1.92
2023-01-06T03:49:34.311Z,3.08
2023-01-06T03:52:04.842Z,2.92
2023-01-06T03:54:37.031Z,2.47
2023-01-06T03:57:06.030Z,2.00
2023-01-06T03:59:34.234Z,1.67
2023-01-06T04:02:01.610Z,1.98
2023-01-06T04:04:28.972Z,2.13
2023-01-06T04:06:56.527Z,2.03
2023-01-06T04:09:25.235Z,1.80
2023-01-06T04:12:09.930Z,2.13
2023-01-06T04:14:37.640Z,1.60
2023-01-06T04:17:05.045Z,2.45
2023-01-06T04:19:32.414Z,1.60
2023-01-06T04:21:59.803Z,1.90
2023-01-06T04:24:28.543Z,1.83
2023-01-06T04:26:55.928Z,1.60
2023-01-06T04:29:23.293Z,2.72
2023-01-06T04:31:50.725Z,1.60
2023-01-06T04:34:18.125Z,1.42
2023-01-06T04:36:45.496Z,1.40
2023-01-06T04:39:12.858Z,2.20
2023-01-06T04:41:41.566Z,2.33
2023-01-06T04:44:08.928Z,1.48
2023-01-06T04:46:36.290Z,2.22
2023-01-06T04:49:03.746Z,1.60
2023-01-06T04:51:31.133Z,1.40
2023-01-06T04:53:58.514Z,2.13
2023-01-06T04:56:26.913Z,2.65
2023-01-06T04:58:56.247Z,1.35
2023-01-06T05:01:24.009Z,1.60
2023-01-06T05:03:51.506Z,1.48
2023-01-06T05:06:19.190Z,1.25
2023-01-06T05:08:46.759Z,3.03
2023-01-06T05:11:15.021Z,1.88
2023-01-06T05:13:42.462Z,1.20
2023-01-06T05:16:12.408Z,2.00
2023-01-06T05:18:39.849Z,1.60
2023-01-06T05:21:07.549Z,1.35
2023-01-06T05:23:34.957Z,1.20
2023-01-06T05:26:02.364Z,1.73
2023-01-06T05:28:29.777Z,1.60
2023-01-06T05:31:00.088Z,0.95
2023-01-06T05:33:28.775Z,1.27
2023-01-06T05:35:58.746Z,1.83
2023-01-06T05:38:26.135Z,1.77
2023-01-06T05:40:53.592Z,1.88
2023-01-06T05:43:20.975Z,1.88
2023-01-06T05:45:48.384Z,1.35
2023-01-06T05:48:15.859Z,1.42
2023-01-06T05:50:44.539Z,1.20
2023-01-06T05:53:11.934Z,1.75
2023-01-06T05:55:39.294Z,1.40
2023-01-06T05:58:06.665Z,2.08
2023-01-06T06:00:34.020Z,1.85
2023-01-06T06:03:01.401Z,1.23
2023-01-06T06:05:28.790Z,1.20
2023-01-06T06:07:57.499Z,1.75
2023-01-06T06:10:24.856Z,0.95
2023-01-06T06:12:52.332Z,1.88
2023-01-06T06:15:19.811Z,1.35
2023-01-06T06:17:47.406Z,1.27
2023-01-06T06:20:14.885Z,1.02
2023-01-06T06:22:42.270Z,2.67
2023-01-06T06:25:11.184Z,1.17
2023-01-06T06:27:39.251Z,1.67
2023-01-06T06:30:07.971Z,1.67
2023-01-06T06:32:35.362Z,3.42
2023-01-06T06:35:02.713Z,1.17
2023-01-06T06:37:30.086Z,1.05
2023-01-06T06:39:57.453Z,1.10
2023-01-06T06:42:26.155Z,2.05
2023-01-06T06:44:53.523Z,1.60
2023-01-06T06:47:20.897Z,1.83
2023-01-06T06:49:48.258Z,1.33
2023-01-06T06:52:15.648Z,2.80
2023-01-06T06:54:43.014Z,2.33
2023-01-06T06:57:10.415Z,1.95
2023-01-06T06:59:39.088Z,2.28
2023-01-06T07:02:07.443Z,2.70
2023-01-06T07:04:34.889Z,2.35
2023-01-06T07:07:02.335Z,1.73
2023-01-06T07:09:29.723Z,1.85
2023-01-06T07:11:57.093Z,1.17
2023-01-06T07:14:24.458Z,1.58
2023-01-06T07:16:53.139Z,2.90
2023-01-06T07:19:20.553Z,1.50
2023-01-06T07:21:47.936Z,3.20
2023-01-06T07:24:15.299Z,2.22
2023-01-06T07:26:42.683Z,5.15
2023-01-06T07:29:10.047Z,2.33
2023-01-06T07:31:37.448Z,1.98
2023-01-06T07:34:06.199Z,3.00
2023-01-06T07:36:33.585Z,2.53
2023-01-06T07:39:00.999Z,2.95
2023-01-06T07:41:28.389Z,1.90
2023-01-06T07:43:55.769Z,2.88
2023-01-06T07:46:23.191Z,3.53
2023-01-06T07:48:50.583Z,2.75
2023-01-06T07:51:19.315Z,1.67
2023-01-06T07:53:46.893Z,3.45
2023-01-06T07:56:14.423Z,4.70
2023-01-06T07:58:41.821Z,2.22
2023-01-06T08:01:09.316Z,1.92
2023-01-06T08:05:56.713Z,2.50
2023-01-06T08:08:25.391Z,3.97
2023-01-06T08:10:52.764Z,6.13
2023-01-06T08:13:20.626Z,2.15
2023-01-06T08:15:51.647Z,4.75
2023-01-06T08:18:19.055Z,3.05
2023-01-06T08:20:46.410Z,3.78
2023-01-06T08:23:13.783Z,4.38
2023-01-06T08:25:42.450Z,3.35
2023-01-06T08:28:10.024Z,4.15
2023-01-06T08:30:39.993Z,2.83
2023-01-06T08:33:07.419Z,3.63
2023-01-06T08:35:34.790Z,3.85
2023-01-06T08:38:02.191Z,1.70
2023-01-06T08:40:29.592Z,3.40
2023-01-06T08:42:58.310Z,4.40
2023-01-06T08:45:25.726Z,6.95
2023-01-06T08:47:53.139Z,2.22
2023-01-06T08:50:20.563Z,2.92
2023-01-06T08:52:48.260Z,3.55
2023-01-06T08:55:15.687Z,3.25
2023-01-06T08:57:43.073Z,3.88
2023-01-06T09:00:13.251Z,2.53
2023-01-06T09:05:08.599Z,1.55
2023-01-06T09:07:36.041Z,2.63
2023-01-06T09:10:03.627Z,2.70
2023-01-06T09:12:31.002Z,1.65
2023-01-06T09:14:58.367Z,2.10
2023-01-06T09:17:27.087Z,2.00
2023-01-06T09:19:54.518Z,2.58
2023-01-06T09:22:21.894Z,1.92
2023-01-06T09:24:49.272Z,2.08
2023-01-06T09:27:16.670Z,3.28
2023-01-06T09:29:44.051Z,2.42
2023-01-06T09:32:11.500Z,3.33
2023-01-06T09:34:40.188Z,1.67
2023-01-06T09:37:07.564Z,1.63
2023-01-06T09:39:36.995Z,1.48
2023-01-06T09:42:29.564Z,1.75
2023-01-06T09:44:57.700Z,2.55
2023-01-06T09:47:26.170Z,1.88
2023-01-06T09:49:57.746Z,3.47
2023-01-06T09:52:27.696Z,1.15
2023-01-06T09:54:56.189Z,1.65
2023-01-06T09:57:29.958Z,2.45
2023-01-06T09:59:57.983Z,2.10
2023-01-06T10:02:27.909Z,1.30
2023-01-06T10:04:56.601Z,1.15
2023-01-06T10:07:28.280Z,1.10
2023-01-06T10:10:01.920Z,0.95
2023-01-06T10:12:36.884Z,1.50
2023-01-06T10:15:09.800Z,1.42
2023-01-06T10:17:56.133Z,1.27
2023-01-06T10:21:03.892Z,1.83
2023-01-06T10:23:51.240Z,2.50
2023-01-06T10:26:23.285Z,0.80
2023-01-06T10:28:53.555Z,1.42
2023-01-06T10:31:21.719Z,0.95
2023-01-06T10:33:50.908Z,1.00
2023-01-06T10:36:32.366Z,0.93
2023-01-06T10:39:00.132Z,1.17
2023-01-06T10:41:31.701Z,1.00
2023-01-06T10:43:59.075Z,1.25
2023-01-06T10:46:26.528Z,1.17
2023-01-06T10:48:53.938Z,1.20
2023-01-06T10:51:36.239Z,0.80
2023-01-06T10:54:05.628Z,1.65
2023-01-06T10:56:32.994Z,1.35
2023-01-06T10:59:04.227Z,1.00
2023-01-06T11:01:33.856Z,1.13
2023-01-06T11:04:07.628Z,1.10
2023-01-06T11:06:36.453Z,1.90
2023-01-06T11:09:08.187Z,1.13
2023-01-06T11:11:36.221Z,1.48
2023-01-06T11:14:05.622Z,0.93
2023-01-06T11:16:33.890Z,0.93
2023-01-06T11:19:02.299Z,1.02
2023-01-06T11:21:41.080Z,1.58
2023-01-06T11:24:17.652Z,1.10
2023-01-06T11:26:45.632Z,1.20
2023-01-06T11:29:19.022Z,0.95
2023-01-06T11:31:48.467Z,1.17
2023-01-06T11:34:21.518Z,1.38
2023-01-06T11:36:50.208Z,1.65
2023-01-06T11:39:22.580Z,1.00
2023-01-06T11:41:51.078Z,1.55
2023-01-06T11:44:19.999Z,0.85
2023-01-06T11:46:48.987Z,0.73
2023-01-06T11:49:19.213Z,1.20
2023-01-06T11:51:49.822Z,1.27
2023-01-06T11:56:58.563Z,1.20
2023-01-06T11:59:26.265Z,1.00
2023-01-06T12:01:55.061Z,1.23
2023-01-06T12:04:25.278Z,0.80
2023-01-06T12:09:24.153Z,0.93
2023-01-06T12:11:52.319Z,2.28
2023-01-06T12:14:29.028Z,2.42
2023-01-06T12:17:04.310Z,1.45
2023-01-06T12:19:33.846Z,1.25
2023-01-06T12:22:02.583Z,1.20
2023-01-06T12:24:32.071Z,1.55
2023-01-06T12:26:59.445Z,1.45
2023-01-06T12:29:26.827Z,1.48
2023-01-06T12:32:01.036Z,1.30
2023-01-06T12:34:31.931Z,1.30
2023-01-06T12:37:04.977Z,1.13
2023-01-06T12:39:36.878Z,1.58
2023-01-06T12:42:06.032Z,1.30
2023-01-06T12:44:38.742Z,1.05
2023-01-06T12:47:08.577Z,1.10
2023-01-06T12:49:38.723Z,1.50
2023-01-06T12:54:35.508Z,1.67
2023-01-06T12:57:10.644Z,1.45
2023-01-06T12:59:46.484Z,1.30
2023-01-06T13:02:19.689Z,1.30
2023-01-06T13:05:04.934Z,1.52
2023-01-06T13:07:42.225Z,1.58
2023-01-06T13:10:16.969Z,1.23
2023-01-06T13:12:57.577Z,1.35
2023-01-06T13:15:27.000Z,1.27
2023-01-06T13:18:04.672Z,1.50
2023-01-06T13:20:34.038Z,1.33
2023-01-06T13:23:09.981Z,1.40
2023-01-06T13:25:45.653Z,1.42
2023-01-06T13:28:16.931Z,1.63
2023-01-06T13:31:23.331Z,1.80
2023-01-06T13:34:06.094Z,1.80
2023-01-06T13:36:48.415Z,1.42
2023-01-06T13:39:17.438Z,3.65
2023-01-06T13:41:45.670Z,1.98
2023-01-06T13:44:15.843Z,1.75
2023-01-06T13:49:11.123Z,1.65
2023-01-06T13:51:39.351Z,1.88
2023-01-06T13:54:06.754Z,2.53
2023-01-06T13:56:35.622Z,2.35
2023-01-06T13:59:20.526Z,1.73
2023-01-06T14:01:48.175Z,1.88
2023-01-06T14:04:45.397Z,1.90
2023-01-06T14:07:12.773Z,2.03
2023-01-06T14:09:50.928Z,2.30
2023-01-06T14:12:22.227Z,1.90
2023-01-06T14:15:01.029Z,2.15
2023-01-06T14:17:32.938Z,2.22
2023-01-06T14:20:00.363Z,2.38
2023-01-06T14:22:29.543Z,2.28
2023-01-06T14:24:58.267Z,2.10
2023-01-06T14:28:03.264Z,2.17
2023-01-06T14:30:33.044Z,2.63
2023-01-06T14:33:05.745Z,2.50
2023-01-06T14:35:36.129Z,2.60
2023-01-06T14:38:04.229Z,3.35
2023-01-06T14:40:33.799Z,2.63
2023-01-06T14:43:03.751Z,2.47
2023-01-06T14:45:37.665Z,2.28
2023-01-06T14:48:06.539Z,2.50
2023-01-06T14:50:46.563Z,2.60
2023-01-06T14:53:16.825Z,2.35
2023-01-06T14:55:46.824Z,2.60
2023-01-06T14:58:28.257Z,2.50
2023-01-06T15:00:56.987Z,4.00
2023-01-06T15:03:25.288Z,2.97
2023-01-06T15:05:52.702Z,2.90
2023-01-06T15:08:20.296Z,3.10
2023-01-06T15:10:48.387Z,3.03
2023-01-06T15:13:21.122Z,3.05
2023-01-06T15:15:53.133Z,3.92
2023-01-06T15:18:21.835Z,3.22
2023-01-06T15:20:49.258Z,3.28
2023-01-06T15:23:17.455Z,2.70
2023-01-06T15:25:44.872Z,3.25
2023-01-06T15:28:24.841Z,3.35
2023-01-06T15:30:52.294Z,4.15
2023-01-06T15:33:19.715Z,3.20
2023-01-06T15:35:48.412Z,3.00
2023-01-06T15:38:23.973Z,3.42
2023-01-06T15:40:51.365Z,3.33
2023-01-06T15:43:18.758Z,3.50
2023-01-06T15:45:55.668Z,3.22
2023-01-06T15:48:26.889Z,3.30
2023-01-06T15:50:55.823Z,3.60
2023-01-06T15:53:24.752Z,3.50
2023-01-06T15:55:52.772Z,3.53
2023-01-06T15:58:21.857Z,3.72
2023-01-06T16:00:50.861Z,3.13
2023-01-06T16:03:19.497Z,3.53
2023-01-06T16:05:50.906Z,2.97
2023-01-06T16:08:25.141Z,3.05
2023-01-06T16:11:10.644Z,3.90
2023-01-06T16:13:38.031Z,3.47
2023-01-06T16:16:06.857Z,3.15
2023-01-06T16:18:35.215Z,3.38
2023-01-06T16:21:14.149Z,3.50
2023-01-06T16:23:42.860Z,3.70
2023-01-06T16:26:12.484Z,3.58
2023-01-06T16:28:44.794Z,3.65
2023-01-06T16:31:12.745Z,3.42
2023-01-06T16:33:41.421Z,3.22
2023-01-06T16:36:16.614Z,3.03
2023-01-06T16:38:45.350Z,2.83
2023-01-06T16:41:17.767Z,2.85
2023-01-06T16:43:45.194Z,3.10
2023-01-06T16:46:17.761Z,3.25
2023-01-06T16:48:45.225Z,3.30
2023-01-06T16:51:14.478Z,3.08
2023-01-06T16:53:43.461Z,3.17
2023-01-06T16:56:21.966Z,2.90
2023-01-06T16:58:49.663Z,2.95
2023-01-06T17:01:18.329Z,2.97
2023-01-06T17:03:46.254Z,3.10
2023-01-06T17:06:17.053Z,3.33
2023-01-06T17:08:44.460Z,3.03
2023-01-06T17:11:14.991Z,3.45
2023-01-06T17:13:45.995Z,4.15
2023-01-06T17:16:15.346Z,3.83
2023-01-06T17:18:49.901Z,3.67
2023-01-06T17:21:18.223Z,3.40
2023-01-06T17:23:47.535Z,3.42
2023-01-06T17:26:16.282Z,3.10
2023-01-06T17:28:45.067Z,3.83
2023-01-06T17:31:14.460Z,3.08
2023-01-06T17:33:41.837Z,3.00
2023-01-06T17:36:12.008Z,3.40
2023-01-06T17:41:09.302Z,3.10
2023-01-06T17:43:36.944Z,4.03
2023-01-06T17:46:21.207Z,3.03
2023-01-06T17:48:48.769Z,3.40
2023-01-06T17:51:16.157Z,3.50
2023-01-06T17:54:00.835Z,3.40
2023-01-06T17:56:28.539Z,4.15
2023-01-06T17:58:55.930Z,3.38
2023-01-06T18:01:25.374Z,3.55
2023-01-06T18:03:53.006Z,3.33
2023-01-06T18:06:26.023Z,3.20
2023-01-06T18:09:01.515Z,3.35
2023-01-06T18:11:38.806Z,3.40
2023-01-06T18:14:20.436Z,3.22
2023-01-06T18:16:49.855Z,3.35
2023-01-06T18:19:25.207Z,3.38
2023-01-06T18:21:52.717Z,3.42
2023-01-06T18:24:23.175Z,3.50
2023-01-06T18:26:51.557Z,2.90
2023-01-06T18:29:19.930Z,3.10
2023-01-06T18:31:50.311Z,3.15
2023-01-06T18:34:29.501Z,3.10
2023-01-06T18:36:57.862Z,3.00
2023-01-06T18:39:27.368Z,3.42
2023-01-06T18:42:18.736Z,3.00
2023-01-06T18:44:46.097Z,3.28
2023-01-06T18:47:18.435Z,2.83
2023-01-06T18:49:45.873Z,2.75
2023-01-06T18:52:40.022Z,3.17
2023-01-06T18:55:19.675Z,2.90
2023-01-06T18:57:56.625Z,3.20
2023-01-06T19:00:32.880Z,2.88
2023-01-06T19:03:21.933Z,3.00
2023-01-06T19:05:49.328Z,3.00
2023-01-06T19:08:17.763Z,2.97
2023-01-06T19:10:45.709Z,2.85
2023-01-06T19:13:16.467Z,3.10
2023-01-06T19:15:43.873Z,2.90
2023-01-06T19:18:15.100Z,4.45
2023-01-06T19:20:42.835Z,3.47
2023-01-06T19:23:15.883Z,3.00
2023-01-06T19:25:48.244Z,3.10
2023-01-06T19:28:17.754Z,2.78
2023-01-06T19:30:45.840Z,3.40
2023-01-06T19:33:24.271Z,2.97
2023-01-06T19:35:52.087Z,2.55
2023-01-06T19:38:24.522Z,3.00
2023-01-06T19:40:52.023Z,2.80
2023-01-06T19:43:25.501Z,2.95
2023-01-06T19:45:53.158Z,2.83
2023-01-06T19:48:23.214Z,2.90
2023-01-06T19:50:50.887Z,3.03
2023-01-06T19:53:32.315Z,2.63
2023-01-06T19:56:01.858Z,3.47
2023-01-06T19:58:34.391Z,2.95
2023-01-06T20:01:01.846Z,2.45
2023-01-06T20:03:31.187Z,2.70
2023-01-06T20:05:58.675Z,2.55
2023-01-06T20:08:26.081Z,2.97
2023-01-06T20:10:53.493Z,2.60
2023-01-06T20:13:20.879Z,3.00
2023-01-06T20:15:48.325Z,2.95
2023-01-06T20:18:15.712Z,2.97
2023-01-06T20:20:44.533Z,2.78
2023-01-06T20:23:12.033Z,4.40
2023-01-06T20:25:39.423Z,3.15
2023-01-06T20:28:06.815Z,2.92
2023-01-06T20:30:34.212Z,2.90
2023-01-06T20:33:02.045Z,3.00
2023-01-06T20:35:29.451Z,2.78
2023-01-06T20:37:58.140Z,2.72
2023-01-06T20:40:25.557Z,2.60
2023-01-06T20:42:52.952Z,2.80
2023-01-06T20:45:20.838Z,2.75
2023-01-06T20:47:48.298Z,3.00
2023-01-06T20:50:15.700Z,3.47
2023-01-06T20:52:43.238Z,3.00
2023-01-06T20:55:12.055Z,2.92
2023-01-06T20:57:39.450Z,3.13
2023-01-06T21:00:09.496Z,2.97
2023-01-06T21:02:37.093Z,2.80
2023-01-06T21:05:05.062Z,2.70
2023-01-06T21:07:33.331Z,3.17
2023-01-06T21:10:00.761Z,2.83
2023-01-06T21:12:29.720Z,2.72
2023-01-06T21:14:57.113Z,3.17
2023-01-06T21:17:24.531Z,2.80
2023-01-06T21:19:51.896Z,2.90
2023-01-06T21:22:19.308Z,3.10
2023-01-06T21:24:46.693Z,2.88
2023-01-06T21:27:14.113Z,3.00
2023-01-06T21:29:42.859Z,3.00
2023-01-06T21:32:10.341Z,2.70
2023-01-06T21:34:37.720Z,2.88
2023-01-06T21:37:05.134Z,2.63
2023-01-06T21:39:32.529Z,2.70
2023-01-06T21:42:18.110Z,2.67
2023-01-06T21:44:46.867Z,2.75
2023-01-06T21:47:14.462Z,2.63
2023-01-06T21:49:43.226Z,2.35
2023-01-06T21:52:10.987Z,3.05
2023-01-06T21:54:38.407Z,2.75
2023-01-06T21:57:05.804Z,2.60
2023-01-06T21:59:33.350Z,2.92
2023-01-06T22:02:02.263Z,2.15
2023-01-06T22:04:29.702Z,2.70
2023-01-06T22:06:57.676Z,2.50
2023-01-06T22:09:25.059Z,2.83
2023-01-06T22:11:52.515Z,2.80
2023-01-06T22:14:19.892Z,2.88
2023-01-06T22:16:47.302Z,2.80
2023-01-06T22:19:16.039Z,2.70
2023-01-06T22:21:43.871Z,2.63
2023-01-06T22:24:11.915Z,2.92
2023-01-06T22:26:39.314Z,2.60
2023-01-06T22:29:08.051Z,3.25
2023-01-06T22:31:35.627Z,2.70
2023-01-06T22:34:03.046Z,2.80
2023-01-06T22:36:31.789Z,2.70
2023-01-06T22:38:59.183Z,2.75
2023-01-06T22:41:26.578Z,2.70
2023-01-06T22:43:53.956Z,2.38
2023-01-06T22:46:21.472Z,2.65
2023-01-06T22:48:48.958Z,2.58
2023-01-06T22:51:16.355Z,2.80
2023-01-06T22:53:45.091Z,2.85
2023-01-06T22:56:12.784Z,2.80
2023-01-06T22:58:40.779Z,2.60
2023-01-06T23:01:08.548Z,2.28
2023-01-06T23:03:36.195Z,2.65
2023-01-06T23:06:05.115Z,2.90
2023-01-06T23:08:33.495Z,3.15
2023-01-06T23:11:03.487Z,2.50
2023-01-06T23:13:31.102Z,2.60
2023-01-06T23:16:02.408Z,2.78
2023-01-06T23:18:30.770Z,2.55
2023-01-06T23:20:59.500Z,2.42
2023-01-06T23:23:26.894Z,2.72
2023-01-06T23:25:54.326Z,2.60
2023-01-06T23:28:23.042Z,2.55
2023-01-06T23:30:50.439Z,2.50
2023-01-06T23:33:17.850Z,2.65
2023-01-06T23:35:45.232Z,2.50
2023-01-06T23:38:12.611Z,2.65
2023-01-06T23:40:39.995Z,2.88
2023-01-06T23:43:07.374Z,2.40
2023-01-06T23:45:36.059Z,2.55
2023-01-06T23:48:03.458Z,2.80
2023-01-06T23:50:30.829Z,2.17
2023-01-06T23:52:58.205Z,2.40
2023-01-06T23:55:25.589Z,2.33
2023-01-06T23:57:52.967Z,2.28
